createdAt,value
2022-08-05T00:00:50.324Z,20.33
2022-08-05T00:01:49.587Z,20.32
2022-08-05T00:02:51.140Z,20.31
2022-08-05T00:03:48.381Z,20.32
2022-08-05T00:04:55.262Z,20.32
2022-08-05T00:06:06.680Z,20.31
2022-08-05T00:06:51.549Z,20.31
2022-08-05T00:08:32.511Z,20.32
2022-08-05T00:08:48.585Z,20.32
2022-08-05T00:09:48.337Z,20.31
2022-08-05T00:10:48.078Z,20.33
2022-08-05T00:11:55.638Z,20.31
2022-08-05T00:12:56.466Z,20.31
2022-08-05T00:13:53.249Z,20.29
2022-08-05T00:14:48.045Z,20.31
2022-08-05T00:15:55.550Z,20.29
2022-08-05T00:16:53.743Z,20.29
2022-08-05T00:18:08.282Z,20.31
2022-08-05T00:18:48.069Z,20.31
2022-08-05T00:20:02.230Z,20.29
2022-08-05T00:20:49.047Z,20.28
2022-08-05T00:21:48.213Z,20.28
2022-08-05T00:22:57.515Z,20.26
2022-08-05T00:24:05.015Z,20.24
2022-08-05T00:24:55.112Z,20.23
2022-08-05T00:25:49.146Z,20.21
2022-08-05T00:26:50.744Z,20.23
2022-08-05T00:28:08.131Z,20.23
2022-08-05T00:28:49.315Z,20.23
2022-08-05T00:29:48.103Z,20.23
2022-08-05T00:30:52.061Z,20.24
2022-08-05T00:32:11.091Z,20.26
2022-08-05T00:32:49.314Z,20.26
2022-08-05T00:34:55.195Z,20.24
2022-08-05T00:35:03.867Z,20.24
2022-08-05T00:36:15.846Z,20.24
2022-08-05T00:37:12.710Z,20.23
2022-08-05T00:38:09.417Z,20.23
2022-08-05T00:38:47.806Z,20.23
2022-08-05T00:39:58.133Z,20.23
2022-08-05T00:40:51.810Z,20.21
2022-08-05T00:41:54.953Z,20.23
2022-08-05T00:42:49.152Z,20.21
2022-08-05T00:43:50.072Z,20.21
2022-08-05T00:44:47.731Z,20.20
2022-08-05T00:45:47.976Z,20.23
2022-08-05T00:46:47.718Z,20.24
2022-08-05T00:48:08.245Z,20.24
2022-08-05T00:48:51.520Z,20.23
2022-08-05T00:49:51.430Z,20.23
2022-08-05T00:50:47.932Z,20.26
2022-08-05T00:51:51.873Z,20.24
2022-08-05T00:52:47.916Z,20.26
2022-08-05T00:54:02.843Z,20.28
2022-08-05T00:54:48.894Z,20.29
2022-08-05T00:55:47.633Z,20.29
2022-08-05T00:56:51.440Z,20.28
2022-08-05T00:58:07.623Z,20.28
2022-08-05T00:58:47.866Z,20.29
2022-08-05T00:59:47.608Z,20.23
2022-08-05T01:00:50.102Z,20.23
2022-08-05T01:01:48.516Z,20.23
2022-08-05T01:02:47.834Z,20.21
2022-08-05T01:03:49.915Z,20.21
2022-08-05T01:04:50.300Z,20.21
2022-08-05T01:05:47.566Z,20.21
2022-08-05T01:06:48.987Z,20.21
2022-08-05T01:08:42.367Z,20.21
2022-08-05T01:08:47.957Z,20.23
2022-08-05T01:09:55.448Z,20.24
2022-08-05T01:10:52.575Z,20.26
2022-08-05T01:11:47.670Z,20.28
2022-08-05T01:12:54.257Z,20.32
2022-08-05T01:13:58.920Z,20.33
2022-08-05T01:14:48.398Z,20.38
2022-08-05T01:15:47.837Z,20.41
2022-08-05T01:16:47.609Z,20.42
2022-08-05T01:18:08.467Z,20.43
2022-08-05T01:18:48.194Z,20.47
2022-08-05T01:20:00.701Z,20.47
2022-08-05T01:20:48.566Z,20.48
2022-08-05T01:21:50.665Z,20.50
2022-08-05T01:22:47.553Z,20.50
2022-08-05T01:23:53.205Z,20.48
2022-08-05T01:24:48.533Z,20.48
2022-08-05T01:25:53.218Z,20.47
2022-08-05T01:26:48.505Z,20.43
2022-08-05T01:28:08.692Z,20.43
2022-08-05T01:28:47.486Z,20.42
2022-08-05T01:29:47.732Z,20.42
2022-08-05T01:30:53.701Z,20.41
2022-08-05T01:31:48.702Z,20.41
2022-08-05T01:32:47.453Z,20.38
2022-08-05T01:33:49.331Z,20.36
2022-08-05T01:34:47.423Z,20.36
2022-08-05T01:35:51.899Z,20.35
2022-08-05T01:36:48.407Z,20.35
2022-08-05T01:38:07.677Z,20.33
2022-08-05T01:38:49.846Z,20.33
2022-08-05T01:39:47.996Z,20.35
2022-08-05T01:40:47.385Z,20.36
2022-08-05T01:41:47.108Z,20.39
2022-08-05T01:42:47.348Z,20.42
2022-08-05T01:43:48.903Z,20.42
2022-08-05T01:44:54.184Z,20.42
2022-08-05T01:45:54.045Z,20.42
2022-08-05T01:46:48.317Z,20.41
2022-08-05T01:48:10.466Z,20.41
2022-08-05T01:48:49.428Z,20.41
2022-08-05T01:50:01.960Z,20.39
2022-08-05T01:50:50.873Z,20.38
2022-08-05T01:51:51.930Z,20.33
2022-08-05T01:52:49.979Z,20.31
2022-08-05T01:53:57.922Z,20.29
2022-08-05T01:54:48.260Z,20.24
2022-08-05T01:55:47.003Z,20.23
2022-08-05T01:58:18.879Z,20.20
2022-08-05T01:58:40.475Z,20.14
2022-08-05T01:58:47.658Z,20.10
2022-08-05T01:59:47.410Z,20.08
2022-08-05T02:00:47.404Z,20.10
2022-08-05T02:01:47.225Z,20.11
2022-08-05T02:02:54.375Z,20.13
2022-08-05T02:03:48.257Z,20.13
2022-08-05T02:04:49.446Z,20.13
2022-08-05T02:05:47.302Z,20.11
2022-08-05T02:06:47.039Z,20.11
2022-08-05T02:08:09.291Z,20.13
2022-08-05T02:08:58.444Z,20.13
2022-08-05T02:09:47.874Z,20.13
2022-08-05T02:10:47.165Z,20.06
2022-08-05T02:11:48.068Z,20.08
2022-08-05T02:12:50.932Z,20.03
2022-08-05T02:13:53.466Z,20.01
2022-08-05T02:14:48.262Z,20.01
2022-08-05T02:15:47.052Z,20.03
2022-08-05T02:16:46.813Z,20.03
2022-08-05T02:18:28.598Z,20.08
2022-08-05T02:18:48.693Z,20.06
2022-08-05T02:19:49.064Z,20.06
2022-08-05T02:20:48.917Z,20.06
2022-08-05T02:21:49.285Z,20.06
2022-08-05T02:22:49.056Z,20.11
2022-08-05T02:23:48.497Z,20.10
2022-08-05T02:24:51.377Z,20.10
2022-08-05T02:25:50.580Z,20.10
2022-08-05T02:26:53.913Z,20.11
2022-08-05T02:28:08.648Z,20.11
2022-08-05T02:28:47.947Z,20.11
2022-08-05T02:29:58.379Z,20.11
2022-08-05T02:30:51.799Z,20.11
2022-08-05T02:31:49.863Z,20.10
2022-08-05T02:32:48.693Z,20.10
2022-08-05T02:33:48.966Z,20.10
2022-08-05T02:34:54.838Z,20.11
2022-08-05T02:35:57.509Z,20.11
2022-08-05T02:36:49.831Z,20.11
2022-08-05T02:38:09.535Z,20.11
2022-08-05T02:38:53.395Z,20.13
2022-08-05T02:39:51.757Z,20.11
2022-08-05T02:40:48.448Z,20.05
2022-08-05T02:41:57.878Z,20.01
2022-08-05T02:42:53.022Z,20.01
2022-08-05T02:44:02.486Z,19.98
2022-08-05T02:44:49.796Z,20.01
2022-08-05T02:45:52.644Z,19.98
2022-08-05T02:46:58.672Z,19.96
2022-08-05T02:48:12.280Z,19.95
2022-08-05T02:48:49.876Z,19.94
2022-08-05T02:49:48.641Z,19.94
2022-08-05T02:50:47.471Z,19.92
2022-08-05T02:52:02.784Z,19.95
2022-08-05T02:52:49.510Z,19.94
2022-08-05T02:53:47.795Z,19.95
2022-08-05T02:54:51.113Z,19.92
2022-08-05T02:55:54.746Z,19.95
2022-08-05T02:56:48.730Z,19.94
2022-08-05T02:58:10.177Z,19.92
2022-08-05T02:58:51.394Z,19.91
2022-08-05T02:59:50.560Z,19.91
2022-08-05T03:00:48.340Z,19.88
2022-08-05T03:01:48.677Z,19.87
2022-08-05T03:02:47.412Z,19.88
2022-08-05T03:04:02.543Z,19.87
2022-08-05T03:04:53.352Z,19.81
2022-08-05T03:06:54.658Z,19.77
2022-08-05T03:06:56.939Z,19.78
2022-08-05T03:08:09.386Z,19.76
2022-08-05T03:08:48.187Z,19.74
2022-08-05T03:09:51.600Z,19.74
2022-08-05T03:11:53.008Z,19.74
2022-08-05T03:11:57.042Z,19.76
2022-08-05T03:12:49.404Z,19.76
2022-08-05T03:13:51.707Z,19.74
2022-08-05T03:14:49.498Z,19.74
2022-08-05T03:15:48.270Z,19.74
2022-08-05T03:16:47.543Z,19.76
2022-08-05T03:18:06.354Z,19.76
2022-08-05T03:18:48.770Z,19.73
2022-08-05T03:19:47.398Z,19.73
2022-08-05T03:20:48.871Z,19.73
2022-08-05T03:21:49.423Z,19.71
2022-08-05T03:22:50.052Z,19.73
2022-08-05T03:23:48.060Z,19.74
2022-08-05T03:24:50.797Z,19.76
2022-08-05T03:26:04.859Z,19.77
2022-08-05T03:26:49.459Z,19.77
2022-08-05T03:28:06.281Z,19.77
2022-08-05T03:28:47.983Z,19.76
2022-08-05T03:30:08.350Z,19.77
2022-08-05T03:30:48.573Z,19.77
2022-08-05T03:31:56.990Z,19.74
2022-08-05T03:32:49.137Z,19.74
2022-08-05T03:33:51.068Z,19.71
2022-08-05T03:34:50.831Z,19.74
2022-08-05T03:35:48.014Z,19.74
2022-08-05T03:36:47.289Z,19.74
2022-08-05T03:38:07.108Z,19.74
2022-08-05T03:38:53.414Z,19.73
2022-08-05T03:39:59.278Z,19.71
2022-08-05T03:40:49.057Z,19.76
2022-08-05T03:41:47.238Z,19.74
2022-08-05T03:42:52.403Z,19.76
2022-08-05T03:44:08.306Z,19.74
2022-08-05T03:44:49.109Z,19.74
2022-08-05T03:45:57.662Z,19.74
2022-08-05T03:46:49.185Z,19.73
2022-08-05T03:48:05.996Z,19.71
2022-08-05T03:48:48.208Z,19.71
2022-08-05T03:49:51.784Z,19.73
2022-08-05T03:50:47.810Z,19.69
2022-08-05T03:52:38.511Z,19.66
2022-08-05T03:54:53.503Z,19.66
2022-08-05T03:55:50.264Z,19.66
2022-08-05T03:55:54.206Z,19.66
2022-08-05T03:56:04.182Z,19.65
2022-08-05T03:56:49.962Z,19.63
2022-08-05T03:58:05.799Z,19.61
2022-08-05T03:58:48.011Z,19.59
2022-08-05T03:59:54.442Z,19.56
2022-08-05T04:00:51.712Z,19.55
2022-08-05T04:01:47.953Z,19.54
2022-08-05T04:02:57.685Z,19.54
2022-08-05T04:04:05.377Z,19.51
2022-08-05T04:04:47.652Z,19.50
2022-08-05T04:05:47.074Z,19.50
2022-08-05T04:06:51.347Z,19.48
2022-08-05T04:08:29.946Z,19.47
2022-08-05T04:08:48.610Z,19.46
2022-08-05T04:09:53.512Z,19.43
2022-08-05T04:10:48.174Z,19.40
2022-08-05T04:11:52.510Z,19.37
2022-08-05T04:13:50.137Z,19.29
2022-08-05T04:14:39.796Z,19.21
2022-08-05T04:15:38.586Z,19.19
2022-08-05T04:16:38.662Z,19.19
2022-08-05T04:17:56.169Z,19.14
2022-08-05T04:18:39.881Z,19.13
2022-08-05T04:19:38.643Z,19.14
2022-08-05T04:20:41.132Z,19.14
2022-08-05T04:22:09.129Z,19.16
2022-08-05T04:22:58.008Z,19.14
2022-08-05T04:24:05.931Z,19.11
2022-08-05T04:24:44.150Z,19.10
2022-08-05T04:26:00.224Z,19.07
2022-08-05T04:26:37.739Z,19.08
2022-08-05T04:27:43.612Z,19.10
2022-08-05T04:28:39.675Z,19.08
2022-08-05T04:29:39.450Z,19.10
2022-08-05T04:30:38.747Z,19.11
2022-08-05T04:31:39.528Z,19.13
2022-08-05T04:32:56.820Z,19.07
2022-08-05T04:34:18.826Z,19.00
2022-08-05T04:34:42.898Z,18.99
2022-08-05T04:36:16.814Z,19.02
2022-08-05T04:36:46.427Z,19.02
2022-08-05T04:38:02.245Z,19.04
2022-08-05T04:38:40.255Z,19.04
2022-08-05T04:39:39.237Z,19.04
2022-08-05T04:40:37.500Z,19.06
2022-08-05T04:41:38.730Z,19.07
2022-08-05T04:42:56.721Z,19.08
2022-08-05T04:43:40.696Z,19.07
2022-08-05T04:44:39.854Z,19.04
2022-08-05T04:45:49.098Z,19.04
2022-08-05T04:46:38.779Z,19.04
2022-08-05T04:47:47.295Z,19.04
2022-08-05T04:48:39.301Z,19.06
2022-08-05T04:49:38.388Z,19.07
2022-08-05T04:51:03.075Z,19.07
2022-08-05T04:51:39.614Z,19.10
2022-08-05T04:52:56.452Z,19.11
2022-08-05T04:53:39.103Z,19.11
2022-08-05T04:54:38.437Z,19.11
2022-08-05T04:56:11.858Z,19.11
2022-08-05T04:56:37.741Z,19.11
2022-08-05T04:57:38.487Z,19.11
2022-08-05T04:58:37.245Z,19.13
2022-08-05T04:59:40.811Z,19.10
2022-08-05T05:00:38.237Z,19.11
2022-08-05T05:02:35.688Z,19.11
2022-08-05T05:03:01.459Z,19.11
2022-08-05T05:03:42.113Z,19.08
2022-08-05T05:04:43.877Z,19.10
2022-08-05T05:06:39.867Z,19.11
2022-08-05T05:06:44.546Z,19.11
2022-08-05T05:07:39.386Z,19.10
2022-08-05T05:08:42.876Z,19.10
2022-08-05T05:09:37.975Z,19.10
2022-08-05T05:10:38.133Z,19.11
2022-08-05T05:11:54.025Z,19.11
2022-08-05T05:12:57.321Z,19.11
2022-08-05T05:13:43.029Z,19.11
2022-08-05T05:14:38.014Z,19.14
2022-08-05T05:15:57.787Z,19.14
2022-08-05T05:16:38.809Z,19.19
2022-08-05T05:17:57.067Z,19.19
2022-08-05T05:18:37.443Z,19.21
2022-08-05T05:19:44.367Z,19.22
2022-08-05T05:20:38.400Z,19.21
2022-08-05T05:21:38.152Z,19.22
2022-08-05T05:22:55.962Z,19.22
2022-08-05T05:23:50.330Z,19.22
2022-08-05T05:24:58.145Z,19.21
2022-08-05T05:25:41.045Z,19.23
2022-08-05T05:26:37.000Z,19.25
2022-08-05T05:27:44.137Z,19.26
2022-08-05T05:28:44.893Z,19.25
2022-08-05T05:30:03.363Z,19.25
2022-08-05T05:30:39.129Z,19.26
2022-08-05T05:32:29.278Z,19.28
2022-08-05T05:33:28.996Z,19.28
2022-08-05T05:34:29.322Z,19.26
2022-08-05T05:35:34.296Z,19.23
2022-08-05T05:36:30.285Z,19.22
2022-08-05T05:37:37.188Z,19.22
2022-08-05T05:38:30.226Z,19.23
2022-08-05T05:39:31.544Z,19.18
2022-08-05T05:40:30.184Z,19.14
2022-08-05T05:41:54.018Z,19.16
2022-08-05T05:42:29.186Z,19.16
2022-08-05T05:43:58.251Z,19.16
2022-08-05T05:44:36.229Z,19.13
2022-08-05T05:45:29.878Z,19.10
2022-08-05T05:46:29.113Z,19.07
2022-08-05T05:47:30.471Z,19.04
2022-08-05T05:48:30.076Z,19.04
2022-08-05T05:49:28.810Z,19.04
2022-08-05T05:50:29.053Z,19.04
2022-08-05T05:51:49.978Z,19.07
2022-08-05T05:52:33.078Z,19.04
2022-08-05T05:53:29.827Z,18.98
2022-08-05T05:54:49.941Z,19.00
2022-08-05T05:55:52.264Z,18.99
2022-08-05T05:56:31.900Z,18.94
2022-08-05T05:57:42.699Z,18.95
2022-08-05T05:58:31.588Z,18.98
2022-08-05T05:59:28.832Z,18.99
2022-08-05T06:00:31.782Z,19.02
2022-08-05T06:01:57.611Z,19.04
2022-08-05T06:02:37.411Z,19.02
2022-08-05T06:03:53.592Z,19.04
2022-08-05T06:04:29.976Z,19.02
2022-08-05T06:05:28.721Z,18.98
2022-08-05T06:06:31.368Z,18.98
2022-08-05T06:07:41.716Z,18.95
2022-08-05T06:08:32.264Z,18.94
2022-08-05T06:09:50.221Z,18.95
2022-08-05T06:10:36.610Z,18.98
2022-08-05T06:11:59.146Z,19.02
2022-08-05T06:12:29.457Z,19.04
2022-08-05T06:13:28.706Z,19.10
2022-08-05T06:14:29.452Z,19.11
2022-08-05T06:16:27.452Z,19.14
2022-08-05T06:16:32.664Z,19.18
2022-08-05T06:17:30.847Z,19.21
2022-08-05T06:18:31.351Z,19.21
2022-08-05T06:19:34.834Z,19.19
2022-08-05T06:20:29.361Z,19.16
2022-08-05T06:21:50.582Z,19.14
2022-08-05T06:22:28.359Z,19.07
2022-08-05T06:23:31.984Z,19.07
2022-08-05T06:24:29.342Z,19.08
2022-08-05T06:26:12.868Z,19.11
2022-08-05T06:26:33.822Z,19.14
2022-08-05T06:28:11.284Z,19.14
2022-08-05T06:28:28.855Z,19.18
2022-08-05T06:29:49.538Z,19.19
2022-08-05T06:30:29.664Z,19.16
2022-08-05T06:31:50.699Z,19.18
2022-08-05T06:32:29.246Z,19.19
2022-08-05T06:33:33.338Z,19.22
2022-08-05T06:34:29.655Z,19.23
2022-08-05T06:36:07.137Z,19.28
2022-08-05T06:36:29.595Z,19.28
2022-08-05T06:37:56.481Z,19.28
2022-08-05T06:38:36.735Z,19.31
2022-08-05T06:39:29.404Z,19.33
2022-08-05T06:40:32.300Z,19.39
2022-08-05T06:41:50.348Z,19.32
2022-08-05T06:42:28.128Z,19.29
2022-08-05T06:43:57.604Z,19.28
2022-08-05T06:44:29.508Z,19.32
2022-08-05T06:45:44.507Z,19.36
2022-08-05T06:46:30.026Z,19.39
2022-08-05T06:48:12.008Z,19.41
2022-08-05T06:48:53.825Z,19.44
2022-08-05T06:50:00.776Z,19.48
2022-08-05T06:50:29.258Z,19.56
2022-08-05T06:51:49.482Z,19.66
2022-08-05T06:52:36.784Z,19.69
2022-08-05T06:53:29.385Z,19.69
2022-08-05T06:54:28.240Z,19.69
2022-08-05T06:55:29.974Z,19.68
2022-08-05T06:56:29.214Z,19.74
2022-08-05T06:57:57.716Z,19.76
2022-08-05T06:58:36.577Z,19.80
2022-08-05T06:59:29.159Z,19.86
2022-08-05T07:00:29.708Z,19.94
2022-08-05T07:01:52.831Z,19.99
2022-08-05T07:02:27.926Z,20.02
2022-08-05T07:03:32.781Z,20.06
2022-08-05T07:04:28.924Z,20.10
2022-08-05T07:05:37.678Z,20.14
2022-08-05T07:06:28.904Z,20.17
2022-08-05T07:07:35.365Z,20.20
2022-08-05T07:08:28.381Z,20.24
2022-08-05T07:09:32.306Z,20.29
2022-08-05T07:10:32.402Z,20.29
2022-08-05T07:11:51.522Z,20.38
2022-08-05T07:12:29.797Z,20.41
2022-08-05T07:13:56.860Z,20.43
2022-08-05T07:14:30.520Z,20.52
2022-08-05T07:15:34.784Z,20.55
2022-08-05T07:17:58.597Z,20.57
2022-08-05T07:18:01.317Z,20.59
2022-08-05T07:18:30.379Z,20.59
2022-08-05T07:20:10.487Z,20.51
2022-08-05T07:20:33.381Z,20.52
2022-08-05T07:22:00.362Z,20.52
2022-08-05T07:22:30.012Z,20.52
2022-08-05T07:23:29.592Z,20.54
2022-08-05T07:24:28.539Z,20.54
2022-08-05T07:25:56.169Z,20.58
2022-08-05T07:26:28.761Z,20.59
2022-08-05T07:27:57.456Z,20.59
2022-08-05T07:28:28.720Z,20.57
2022-08-05T07:30:25.373Z,20.55
2022-08-05T07:30:32.088Z,20.55
2022-08-05T07:31:55.041Z,20.59
2022-08-05T07:32:27.720Z,20.59
2022-08-05T07:33:37.199Z,20.62
2022-08-05T07:34:28.890Z,20.70
2022-08-05T07:35:56.817Z,20.79
2022-08-05T07:36:28.025Z,20.92
2022-08-05T07:37:29.043Z,21.01
2022-08-05T07:38:33.580Z,21.03
2022-08-05T07:40:26.257Z,21.13
2022-08-05T07:40:32.838Z,21.24
2022-08-05T07:42:13.824Z,21.28
2022-08-05T07:42:33.699Z,21.32
2022-08-05T07:43:27.952Z,21.38
2022-08-05T07:44:27.016Z,21.47
2022-08-05T07:45:56.460Z,21.61
2022-08-05T07:46:28.435Z,21.69
2022-08-05T07:47:27.672Z,21.71
2022-08-05T07:49:02.983Z,21.71
2022-08-05T07:49:28.673Z,21.74
2022-08-05T07:50:32.377Z,21.77
2022-08-05T07:51:54.548Z,21.80
2022-08-05T07:52:27.403Z,21.83
2022-08-05T07:53:36.824Z,21.84
2022-08-05T07:54:31.391Z,21.88
2022-08-05T07:56:05.646Z,21.88
2022-08-05T07:57:01.155Z,21.96
2022-08-05T07:57:42.012Z,22.02
2022-08-05T07:58:54.699Z,21.99
2022-08-05T07:59:39.038Z,22.02
2022-08-05T08:00:28.571Z,22.14
2022-08-05T08:01:52.060Z,22.70
2022-08-05T08:02:30.668Z,23.01
2022-08-05T08:03:44.416Z,23.40
2022-08-05T08:04:37.832Z,23.72
2022-08-05T08:05:28.461Z,23.90
2022-08-05T08:06:28.098Z,23.78
2022-08-05T08:07:28.423Z,23.69
2022-08-05T08:08:27.697Z,23.63
2022-08-05T08:09:29.081Z,23.73
2022-08-05T08:10:27.188Z,24.13
2022-08-05T08:11:58.958Z,24.35
2022-08-05T08:12:48.862Z,24.34
2022-08-05T08:13:29.131Z,24.49
2022-08-05T08:14:27.167Z,24.78
2022-08-05T08:16:33.619Z,25.14
2022-08-05T08:16:49.880Z,25.14
2022-08-05T08:17:28.347Z,25.08
2022-08-05T08:18:27.101Z,25.06
2022-08-05T08:20:21.495Z,25.18
2022-08-05T08:20:45.129Z,25.47
2022-08-05T08:21:50.285Z,25.85
2022-08-05T08:22:27.140Z,25.91
2022-08-05T08:24:01.193Z,25.73
2022-08-05T08:24:51.076Z,25.60
2022-08-05T08:26:00.537Z,25.58
2022-08-05T08:26:29.920Z,25.38
2022-08-05T08:27:39.953Z,25.40
2022-08-05T08:28:36.586Z,25.90
2022-08-05T08:30:03.794Z,26.44
2022-08-05T08:30:37.733Z,26.94
2022-08-05T08:31:50.260Z,27.60
2022-08-05T08:32:28.905Z,27.57
2022-08-05T08:33:29.219Z,27.36
2022-08-05T08:34:30.658Z,27.18
2022-08-05T08:35:29.298Z,27.36
2022-08-05T08:36:47.603Z,27.79
2022-08-05T08:37:29.327Z,27.54
2022-08-05T08:38:36.044Z,27.72
2022-08-05T08:39:29.429Z,27.44
2022-08-05T08:40:27.176Z,27.32
2022-08-05T08:41:52.295Z,27.57
2022-08-05T08:42:34.172Z,27.93
2022-08-05T08:45:23.663Z,27.51
2022-08-05T08:45:25.060Z,27.21
2022-08-05T08:45:29.614Z,26.92
2022-08-05T08:46:26.306Z,26.60
2022-08-05T08:48:05.528Z,26.45
2022-08-05T08:48:42.996Z,26.10
2022-08-05T08:50:14.636Z,26.09
2022-08-05T08:50:52.638Z,26.30
2022-08-05T08:52:02.873Z,26.20
2022-08-05T08:52:27.449Z,26.13
2022-08-05T08:53:27.164Z,25.97
2022-08-05T08:54:27.169Z,25.77
2022-08-05T08:56:03.140Z,25.55
2022-08-05T08:56:27.315Z,25.38
2022-08-05T08:57:42.118Z,25.17
2022-08-05T08:58:43.304Z,24.99
2022-08-05T08:59:33.829Z,24.80
2022-08-05T09:00:27.719Z,24.61
2022-08-05T09:01:46.942Z,24.43
2022-08-05T09:02:28.158Z,24.34
2022-08-05T09:03:26.906Z,24.30
2022-08-05T09:04:30.187Z,24.22
2022-08-05T09:05:38.509Z,24.22
2022-08-05T09:06:29.880Z,24.21
2022-08-05T09:07:29.011Z,24.25
2022-08-05T09:08:30.385Z,24.31
2022-08-05T09:09:34.570Z,24.57
2022-08-05T09:10:29.756Z,25.24
2022-08-05T09:11:51.346Z,26.02
2022-08-05T09:12:27.880Z,26.07
2022-08-05T09:13:31.400Z,26.07
2022-08-05T09:14:56.547Z,26.32
2022-08-05T09:15:27.932Z,27.03
2022-08-05T09:16:26.960Z,27.14
2022-08-05T09:17:43.253Z,27.25
2022-08-05T09:18:27.737Z,28.22
2022-08-05T09:19:27.878Z,27.94
2022-08-05T09:20:37.825Z,27.70
2022-08-05T09:22:22.078Z,27.49
2022-08-05T09:22:32.116Z,27.50
2022-08-05T09:23:37.341Z,27.37
2022-08-05T09:24:27.415Z,27.36
2022-08-05T09:26:01.346Z,27.24
2022-08-05T09:26:32.320Z,27.04
2022-08-05T09:28:05.338Z,26.95
2022-08-05T09:28:32.135Z,26.89
2022-08-05T09:29:30.857Z,27.02
2022-08-05T09:30:26.346Z,27.07
2022-08-05T09:32:41.821Z,27.69
2022-08-05T09:32:45.520Z,27.43
2022-08-05T09:33:35.108Z,27.17
2022-08-05T09:34:27.288Z,26.97
2022-08-05T09:35:27.612Z,26.81
2022-08-05T09:36:27.775Z,26.58
2022-08-05T09:38:16.825Z,26.44
2022-08-05T09:38:29.377Z,26.35
2022-08-05T09:39:41.248Z,26.20
2022-08-05T09:40:27.300Z,26.02
2022-08-05T09:41:49.979Z,25.85
2022-08-05T09:42:28.114Z,25.75
2022-08-05T09:43:26.483Z,25.72
2022-08-05T09:44:26.224Z,25.72
2022-08-05T09:46:06.438Z,25.98
2022-08-05T09:46:28.467Z,26.95
2022-08-05T09:47:28.601Z,28.14
2022-08-05T09:48:28.495Z,28.71
2022-08-05T09:49:54.643Z,29.61
2022-08-05T09:50:37.427Z,30.38
2022-08-05T09:51:49.930Z,30.82
2022-08-05T09:52:26.765Z,31.14
2022-08-05T09:53:54.834Z,31.81
2022-08-05T09:54:29.325Z,32.10
2022-08-05T09:55:58.579Z,31.88
2022-08-05T09:56:27.517Z,31.84
2022-08-05T09:57:26.298Z,32.41
2022-08-05T09:58:26.548Z,31.76
2022-08-05T09:59:27.496Z,31.20
2022-08-05T10:00:26.777Z,30.80
2022-08-05T10:01:46.475Z,29.82
2022-08-05T10:02:26.825Z,29.45
2022-08-05T10:03:26.228Z,28.93
2022-08-05T10:04:29.286Z,28.92
2022-08-05T10:05:26.730Z,28.46
2022-08-05T10:06:26.454Z,27.92
2022-08-05T10:08:10.997Z,27.47
2022-08-05T10:08:37.384Z,27.14
2022-08-05T10:09:28.117Z,26.80
2022-08-05T10:10:28.185Z,26.50
2022-08-05T10:11:48.138Z,26.25
2022-08-05T10:12:31.616Z,26.12
2022-08-05T10:13:27.165Z,25.95
2022-08-05T10:14:26.658Z,25.79
2022-08-05T10:15:26.155Z,25.73
2022-08-05T10:16:25.947Z,26.55
2022-08-05T10:17:37.613Z,26.69
2022-08-05T10:18:26.887Z,26.82
2022-08-05T10:20:02.883Z,26.92
2022-08-05T10:20:26.866Z,28.25
2022-08-05T10:21:46.175Z,28.66
2022-08-05T10:22:29.779Z,28.41
2022-08-05T10:23:55.233Z,28.21
2022-08-05T10:24:27.140Z,28.02
2022-08-05T10:25:49.071Z,28.03
2022-08-05T10:26:32.750Z,28.73
2022-08-05T10:28:13.104Z,29.39
2022-08-05T10:28:30.319Z,29.28
2022-08-05T10:31:20.103Z,28.48
2022-08-05T10:31:21.102Z,28.90
2022-08-05T10:32:53.302Z,28.66
2022-08-05T10:32:54.908Z,28.34
2022-08-05T10:33:28.905Z,29.95
2022-08-05T10:34:44.173Z,30.94
2022-08-05T10:35:33.632Z,31.44
2022-08-05T10:36:26.662Z,31.73
2022-08-05T10:38:05.905Z,31.93
2022-08-05T10:38:26.268Z,32.88
2022-08-05T10:40:19.518Z,33.61
2022-08-05T10:40:27.919Z,34.10
2022-08-05T10:41:47.102Z,32.63
2022-08-05T10:42:32.415Z,31.78
2022-08-05T10:43:26.840Z,30.95
2022-08-05T10:44:26.563Z,30.20
2022-08-05T10:45:39.984Z,29.48
2022-08-05T10:46:27.050Z,28.74
2022-08-05T10:47:31.085Z,28.18
2022-08-05T10:48:31.892Z,27.81
2022-08-05T10:49:33.413Z,27.43
2022-08-05T10:50:35.159Z,27.17
2022-08-05T10:51:59.638Z,26.85
2022-08-05T10:52:26.957Z,26.72
2022-08-05T10:53:25.722Z,26.72
2022-08-05T10:54:29.853Z,28.17
2022-08-05T10:55:26.825Z,29.41
2022-08-05T10:56:26.136Z,29.46
2022-08-05T10:57:25.777Z,29.02
2022-08-05T10:58:35.886Z,30.20
2022-08-05T11:00:03.223Z,31.10
2022-08-05T11:00:27.484Z,31.81
2022-08-05T11:01:54.636Z,32.65
2022-08-05T11:02:38.182Z,32.88
2022-08-05T11:03:27.201Z,33.51
2022-08-05T11:04:26.244Z,34.02
2022-08-05T11:05:29.132Z,34.47
2022-08-05T11:06:30.816Z,34.64
2022-08-05T11:07:33.174Z,34.82
2022-08-05T11:08:38.155Z,35.14
2022-08-05T11:09:39.163Z,35.14
2022-08-05T11:10:27.207Z,35.28
2022-08-05T11:11:52.518Z,34.75
2022-08-05T11:12:27.108Z,33.87
2022-08-05T11:13:25.346Z,34.05
2022-08-05T11:14:42.831Z,34.42
2022-08-05T11:15:59.306Z,34.52
2022-08-05T11:16:47.944Z,34.66
2022-08-05T11:17:58.883Z,34.89
2022-08-05T11:18:26.721Z,34.88
2022-08-05T11:20:10.473Z,34.89
2022-08-05T11:20:26.719Z,34.53
2022-08-05T11:21:49.539Z,33.72
2022-08-05T11:22:25.264Z,33.29
2022-08-05T11:23:33.568Z,32.51
2022-08-05T11:24:30.535Z,31.62
2022-08-05T11:26:04.486Z,31.14
2022-08-05T11:26:28.075Z,30.69
2022-08-05T11:27:26.464Z,30.26
2022-08-05T11:28:26.835Z,29.97
2022-08-05T11:29:25.404Z,29.67
2022-08-05T11:30:25.145Z,29.52
2022-08-05T11:31:58.789Z,29.36
2022-08-05T11:32:26.238Z,29.30
2022-08-05T11:33:25.498Z,29.14
2022-08-05T11:34:26.338Z,29.14
2022-08-05T11:35:26.230Z,29.14
2022-08-05T11:36:34.257Z,29.12
2022-08-05T11:38:30.911Z,28.98
2022-08-05T11:38:36.562Z,29.09
2022-08-05T11:39:27.120Z,28.89
2022-08-05T11:40:24.989Z,28.74
2022-08-05T11:42:01.322Z,28.49
2022-08-05T11:42:27.914Z,28.34
2022-08-05T11:44:06.777Z,28.25
2022-08-05T11:44:41.285Z,28.29
2022-08-05T11:46:15.594Z,28.30
2022-08-05T11:46:32.464Z,28.30
2022-08-05T11:47:49.751Z,28.19
2022-08-05T11:48:26.428Z,28.24
2022-08-05T11:49:25.165Z,28.24
2022-08-05T11:50:25.402Z,28.22
2022-08-05T11:51:49.415Z,28.18
2022-08-05T11:52:29.089Z,28.19
2022-08-05T11:53:25.150Z,28.27
2022-08-05T11:54:33.508Z,28.25
2022-08-05T11:55:32.370Z,28.00
2022-08-05T11:56:41.168Z,27.81
2022-08-05T11:57:27.042Z,27.84
2022-08-05T11:58:25.131Z,27.78
2022-08-05T11:59:25.357Z,27.78
2022-08-05T12:00:25.092Z,27.66
2022-08-05T12:01:46.865Z,27.54
2022-08-05T12:02:31.181Z,27.51
2022-08-05T12:03:31.750Z,27.59
2022-08-05T12:04:26.122Z,27.67
2022-08-05T12:05:32.172Z,27.69
2022-08-05T12:06:26.100Z,27.72
2022-08-05T12:08:02.606Z,27.74
2022-08-05T12:08:26.178Z,27.78
2022-08-05T12:09:52.754Z,27.87
2022-08-05T12:10:43.567Z,27.81
2022-08-05T12:11:47.945Z,27.85
2022-08-05T12:12:25.820Z,27.85
2022-08-05T12:13:47.602Z,27.87
2022-08-05T12:14:25.154Z,27.84
2022-08-05T12:15:33.229Z,27.78
2022-08-05T12:16:27.124Z,27.70
2022-08-05T12:18:04.243Z,27.51
2022-08-05T12:18:27.449Z,27.43
2022-08-05T12:20:26.436Z,27.36
2022-08-05T12:20:33.547Z,27.28
2022-08-05T12:21:45.968Z,27.17
2022-08-05T12:22:26.621Z,27.10
2022-08-05T12:23:26.897Z,27.00
2022-08-05T12:24:26.678Z,26.99
2022-08-05T12:25:28.553Z,26.88
2022-08-05T12:26:26.798Z,26.85
2022-08-05T12:27:25.466Z,26.85
2022-08-05T12:28:27.838Z,26.73
2022-08-05T12:29:26.670Z,26.63
2022-08-05T12:30:32.066Z,26.54
2022-08-05T12:31:49.845Z,26.51
2022-08-05T12:32:26.998Z,26.51
2022-08-05T12:33:27.818Z,26.57
2022-08-05T12:34:25.878Z,26.60
2022-08-05T12:35:24.870Z,26.67
2022-08-05T12:36:25.743Z,26.69
2022-08-05T12:37:30.063Z,26.75
2022-08-05T12:38:31.438Z,26.67
2022-08-05T12:39:27.825Z,26.62
2022-08-05T12:40:26.810Z,26.48
2022-08-05T12:41:44.439Z,26.44
2022-08-05T12:42:25.329Z,26.35
2022-08-05T12:43:24.426Z,26.18
2022-08-05T12:44:33.893Z,25.98
2022-08-05T12:45:48.234Z,25.88
2022-08-05T12:46:29.439Z,25.87
2022-08-05T12:47:24.503Z,25.87
2022-08-05T12:48:27.697Z,25.83
2022-08-05T12:49:25.494Z,25.82
2022-08-05T12:50:24.597Z,25.75
2022-08-05T12:52:13.013Z,25.73
2022-08-05T12:52:29.026Z,25.73
2022-08-05T12:53:25.506Z,25.75
2022-08-05T12:54:26.407Z,25.73